sensor_id;sensor_type;location;lat;lon;timestamp;pressure;altitude;pressure_sealevel;temperature;humidity
46291;BME280;32023;44.444;26.006;2023-04-19T00:02:12;100110.75;;;11.47;66.18
46291;BME280;32023;44.444;26.006;2023-04-19T00:04:41;100100.00;;;11.50;66.30
46291;BME280;32023;44.444;26.006;2023-04-19T00:07:15;100095.63;;;11.54;66.27
46291;BME280;32023;44.444;26.006;2023-04-19T00:09:45;100084.59;;;11.54;65.75
46291;BME280;32023;44.444;26.006;2023-04-19T00:12:16;100091.22;;;11.58;65.91
46291;BME280;32023;44.444;26.006;2023-04-19T00:14:46;100089.00;;;11.60;65.67
46291;BME280;32023;44.444;26.006;2023-04-19T00:17:13;100097.00;;;11.62;66.23
46291;BME280;32023;44.444;26.006;2023-04-19T00:19:39;100094.53;;;11.66;65.91
46291;BME280;32023;44.444;26.006;2023-04-19T00:22:07;100095.06;;;11.68;66.36
46291;BME280;32023;44.444;26.006;2023-04-19T00:24:35;100092.88;;;11.70;66.29
46291;BME280;32023;44.444;26.006;2023-04-19T00:27:03;100089.59;;;11.73;66.01
46291;BME280;32023;44.444;26.006;2023-04-19T00:29:32;100087.38;;;11.75;66.38
46291;BME280;32023;44.444;26.006;2023-04-19T00:32:00;100092.91;;;11.75;66.00
46291;BME280;32023;44.444;26.006;2023-04-19T00:34:26;100079.09;;;11.75;66.02
46291;BME280;32023;44.444;26.006;2023-04-19T00:37:00;100084.09;;;11.73;66.48
46291;BME280;32023;44.444;26.006;2023-04-19T00:39:26;100083.47;;;11.60;66.21
46291;BME280;32023;44.444;26.006;2023-04-19T00:41:55;100079.38;;;11.63;66.32
46291;BME280;32023;44.444;26.006;2023-04-19T00:44:25;100083.47;;;11.60;66.47
46291;BME280;32023;44.444;26.006;2023-04-19T00:46:52;100076.03;;;11.61;65.94
46291;BME280;32023;44.444;26.006;2023-04-19T00:49:20;100077.41;;;11.58;65.53
46291;BME280;32023;44.444;26.006;2023-04-19T00:51:50;100072.72;;;11.54;65.92
46291;BME280;32023;44.444;26.006;2023-04-19T00:54:18;100071.34;;;11.51;66.03
46291;BME280;32023;44.444;26.006;2023-04-19T00:56:45;100071.88;;;11.53;66.09
46291;BME280;32023;44.444;26.006;2023-04-19T00:59:13;100071.63;;;11.55;65.68
46291;BME280;32023;44.444;26.006;2023-04-19T01:01:41;100070.50;;;11.51;65.00
46291;BME280;32023;44.444;26.006;2023-04-19T01:04:08;100058.34;;;11.52;65.36
46291;BME280;32023;44.444;26.006;2023-04-19T01:06:35;100064.97;;;11.56;65.66
46291;BME280;32023;44.444;26.006;2023-04-19T01:09:04;100066.94;;;11.60;65.08
46291;BME280;32023;44.444;26.006;2023-04-19T01:11:35;100069.16;;;11.58;65.02
46291;BME280;32023;44.444;26.006;2023-04-19T01:14:02;100059.75;;;11.59;65.44
46291;BME280;32023;44.444;26.006;2023-04-19T01:16:32;100061.16;;;11.62;65.19
46291;BME280;32023;44.444;26.006;2023-04-19T01:19:12;100057.00;;;11.65;64.77
46291;BME280;32023;44.444;26.006;2023-04-19T01:21:39;100055.63;;;11.67;65.23
46291;BME280;32023;44.444;26.006;2023-04-19T01:24:07;100050.94;;;11.68;65.08
46291;BME280;32023;44.444;26.006;2023-04-19T01:26:34;100049.31;;;11.67;65.10
46291;BME280;32023;44.444;26.006;2023-04-19T01:29:01;100050.94;;;11.68;65.07
46291;BME280;32023;44.444;26.006;2023-04-19T01:31:30;100047.63;;;11.66;65.07
46291;BME280;32023;44.444;26.006;2023-04-19T01:33:56;100058.38;;;11.67;65.05
46291;BME280;32023;44.444;26.006;2023-04-19T01:36:28;100054.00;;;11.66;65.03
46291;BME280;32023;44.444;26.006;2023-04-19T01:38:57;100042.97;;;11.66;65.13
46291;BME280;32023;44.444;26.006;2023-04-19T01:41:25;100043.22;;;11.65;65.22
46291;BME280;32023;44.444;26.006;2023-04-19T01:43:52;100040.19;;;11.66;65.19
46291;BME280;32023;44.444;26.006;2023-04-19T01:46:18;100047.91;;;11.64;65.73
46291;BME280;32023;44.444;26.006;2023-04-19T01:48:49;100044.88;;;11.60;65.86
46291;BME280;32023;44.444;26.006;2023-04-19T01:51:16;100046.50;;;11.56;66.64
46291;BME280;32023;44.444;26.006;2023-04-19T01:53:43;100042.38;;;11.54;67.13
46291;BME280;32023;44.444;26.006;2023-04-19T01:56:13;100041.81;;;11.52;67.39
46291;BME280;32023;44.444;26.006;2023-04-19T01:58:40;100047.88;;;11.49;67.68
46291;BME280;32023;44.444;26.006;2023-04-19T02:04:43;100043.72;;;11.41;68.34
46291;BME280;32023;44.444;26.006;2023-04-19T02:07:09;100040.69;;;11.38;68.25
46291;BME280;32023;44.444;26.006;2023-04-19T02:09:37;100041.50;;;11.33;68.93
46291;BME280;32023;44.444;26.006;2023-04-19T02:12:04;100044.25;;;11.33;69.04
46291;BME280;32023;44.444;26.006;2023-04-19T02:14:30;100036.53;;;11.30;69.80
46291;BME280;32023;44.444;26.006;2023-04-19T02:16:59;100043.72;;;11.31;69.64
46291;BME280;32023;44.444;26.006;2023-04-19T02:19:27;100043.69;;;11.26;69.62
46291;BME280;32023;44.444;26.006;2023-04-19T02:21:54;100038.75;;;11.23;70.02
46291;BME280;32023;44.444;26.006;2023-04-19T02:24:23;100043.97;;;11.20;70.45
46291;BME280;32023;44.444;26.006;2023-04-19T02:26:50;100042.59;;;11.17;70.61
46291;BME280;32023;44.444;26.006;2023-04-19T02:29:17;100041.19;;;11.15;70.54
46291;BME280;32023;44.444;26.006;2023-04-19T02:31:45;100040.34;;;11.14;70.76
46291;BME280;32023;44.444;26.006;2023-04-19T02:34:13;100040.91;;;11.11;71.18
46291;BME280;32023;44.444;26.006;2023-04-19T02:36:40;100036.50;;;11.05;71.18
46291;BME280;32023;44.444;26.006;2023-04-19T02:39:09;100033.44;;;11.01;71.28
46291;BME280;32023;44.444;26.006;2023-04-19T02:41:35;100034.28;;;11.02;71.63
46291;BME280;32023;44.444;26.006;2023-04-19T02:44:02;100035.91;;;11.03;71.47
46291;BME280;32023;44.444;26.006;2023-04-19T02:46:36;100031.53;;;11.07;71.30
46291;BME280;32023;44.444;26.006;2023-04-19T02:49:08;100032.09;;;11.09;71.45
46291;BME280;32023;44.444;26.006;2023-04-19T02:51:35;100026.03;;;11.12;71.72
46291;BME280;32023;44.444;26.006;2023-04-19T02:54:02;100027.69;;;11.13;72.14
46291;BME280;32023;44.444;26.006;2023-04-19T02:56:28;100032.09;;;11.14;72.05
46291;BME280;32023;44.444;26.006;2023-04-19T02:59:00;100032.38;;;11.13;72.33
46291;BME280;32023;44.444;26.006;2023-04-19T03:01:31;100035.97;;;11.13;71.98
46291;BME280;32023;44.444;26.006;2023-04-19T03:03:58;100029.88;;;11.11;71.63
46291;BME280;32023;44.444;26.006;2023-04-19T03:06:27;100030.72;;;11.11;71.60
46291;BME280;32023;44.444;26.006;2023-04-19T03:08:55;100034.56;;;11.10;71.28
46291;BME280;32023;44.444;26.006;2023-04-19T03:11:26;100017.75;;;11.07;70.68
46291;BME280;32023;44.444;26.006;2023-04-19T03:13:54;100021.56;;;10.96;70.20
46291;BME280;32023;44.444;26.006;2023-04-19T03:16:21;100021.00;;;10.89;70.23
46291;BME280;32023;44.444;26.006;2023-04-19T03:18:47;100024.84;;;10.88;70.38
46291;BME280;32023;44.444;26.006;2023-04-19T03:21:13;99984.03;;;10.65;70.17
46291;BME280;32023;44.444;26.006;2023-04-19T03:23:40;100032.03;;;10.89;69.64
46291;BME280;32023;44.444;26.006;2023-04-19T03:26:08;100031.19;;;10.88;69.83
46291;BME280;32023;44.444;26.006;2023-04-19T03:28:35;100040.28;;;10.84;69.64
46291;BME280;32023;44.444;26.006;2023-04-19T03:31:03;100031.44;;;10.82;70.11
46291;BME280;32023;44.444;26.006;2023-04-19T03:33:32;100035.28;;;10.81;69.76
46291;BME280;32023;44.444;26.006;2023-04-19T03:35:58;100038.34;;;10.79;69.67
46291;BME280;32023;44.444;26.006;2023-04-19T03:38:25;100032.56;;;10.86;69.51
46291;BME280;32023;44.444;26.006;2023-04-19T03:40:57;100032.81;;;10.84;68.99
46291;BME280;32023;44.444;26.006;2023-04-19T03:43:27;100032.03;;;10.84;68.80
46291;BME280;32023;44.444;26.006;2023-04-19T03:45:54;100025.38;;;10.85;68.89
46291;BME280;32023;44.444;26.006;2023-04-19T03:48:20;100022.66;;;10.90;69.04
46291;BME280;32023;44.444;26.006;2023-04-19T03:50:47;100019.06;;;10.89;68.94
46291;BME280;32023;44.444;26.006;2023-04-19T03:53:14;100023.22;;;10.87;68.49
46291;BME280;32023;44.444;26.006;2023-04-19T03:55:41;100018.78;;;10.86;68.54
46291;BME280;32023;44.444;26.006;2023-04-19T03:58:07;100012.75;;;10.84;68.83
46291;BME280;32023;44.444;26.006;2023-04-19T04:00:35;100028.66;;;10.77;68.42
46291;BME280;32023;44.444;26.006;2023-04-19T04:03:04;100027.03;;;10.76;68.51
46291;BME280;32023;44.444;26.006;2023-04-19T04:05:34;100031.69;;;10.80;68.16
46291;BME280;32023;44.444;26.006;2023-04-19T04:08:00;100025.13;;;10.86;68.28
46291;BME280;32023;44.444;26.006;2023-04-19T04:10:31;100023.78;;;10.94;67.45
46291;BME280;32023;44.444;26.006;2023-04-19T04:12:57;100015.53;;;10.99;67.59
46291;BME280;32023;44.444;26.006;2023-04-19T04:15:23;100023.25;;;11.07;67.28
46291;BME280;32023;44.444;26.006;2023-04-19T04:17:50;100023.31;;;11.17;67.24
46291;BME280;32023;44.444;26.006;2023-04-19T04:20:16;100021.09;;;11.29;66.74
46291;BME280;32023;44.444;26.006;2023-04-19T04:22:43;100021.94;;;11.35;66.88
46291;BME280;32023;44.444;26.006;2023-04-19T04:25:15;100027.72;;;11.33;66.95
46291;BME280;32023;44.444;26.006;2023-04-19T04:27:42;100026.09;;;11.32;66.43
46291;BME280;32023;44.444;26.006;2023-04-19T04:30:11;100022.22;;;11.28;67.22
46291;BME280;32023;44.444;26.006;2023-04-19T04:32:38;100032.16;;;11.34;67.54
46291;BME280;32023;44.444;26.006;2023-04-19T04:35:09;100022.75;;;11.30;70.06
46291;BME280;32023;44.444;26.006;2023-04-19T04:37:40;100028.25;;;11.15;72.26
46291;BME280;32023;44.444;26.006;2023-04-19T04:40:12;100024.38;;;11.06;73.57
46291;BME280;32023;44.444;26.006;2023-04-19T04:42:45;100026.00;;;10.97;74.26
46291;BME280;32023;44.444;26.006;2023-04-19T04:45:16;100030.13;;;10.94;75.03
46291;BME280;32023;44.444;26.006;2023-04-19T04:47:45;100030.91;;;10.85;76.22
46291;BME280;32023;44.444;26.006;2023-04-19T04:50:11;100031.16;;;10.78;76.36
46291;BME280;32023;44.444;26.006;2023-04-19T04:52:38;100038.34;;;10.79;76.60
46291;BME280;32023;44.444;26.006;2023-04-19T04:55:07;100038.56;;;10.73;77.56
46291;BME280;32023;44.444;26.006;2023-04-19T04:57:38;100041.31;;;10.68;77.86
46291;BME280;32023;44.444;26.006;2023-04-19T05:00:09;100042.97;;;10.74;78.12
46291;BME280;32023;44.444;26.006;2023-04-19T05:02:38;100039.38;;;10.73;78.19
46291;BME280;32023;44.444;26.006;2023-04-19T05:05:05;100035.00;;;10.77;78.18
46291;BME280;32023;44.444;26.006;2023-04-19T05:07:32;100029.50;;;10.77;77.99
46291;BME280;32023;44.444;26.006;2023-04-19T05:09:59;100027.53;;;10.73;78.49
46291;BME280;32023;44.444;26.006;2023-04-19T05:12:33;100031.97;;;10.74;78.51
46291;BME280;32023;44.444;26.006;2023-04-19T05:15:00;100027.84;;;10.81;78.81
46291;BME280;32023;44.444;26.006;2023-04-19T05:17:26;100034.78;;;10.84;78.62
46291;BME280;32023;44.444;26.006;2023-04-19T05:22:58;100030.38;;;10.93;78.13
46291;BME280;32023;44.444;26.006;2023-04-19T05:25:36;100021.56;;;10.96;78.26
46291;BME280;32023;44.444;26.006;2023-04-19T05:35:17;100018.31;;;11.14;77.30
46291;BME280;32023;44.444;26.006;2023-04-19T05:37:52;100013.97;;;11.28;76.48
46291;BME280;32023;44.444;26.006;2023-04-19T05:40:42;100023.09;;;11.44;76.21
46291;BME280;32023;44.444;26.006;2023-04-19T05:43:08;100017.84;;;11.63;75.74
46291;BME280;32023;44.444;26.006;2023-04-19T05:45:35;100020.63;;;11.63;73.98
46291;BME280;32023;44.444;26.006;2023-04-19T05:48:10;100019.50;;;11.69;72.86
46291;BME280;32023;44.444;26.006;2023-04-19T05:51:20;100024.25;;;11.78;73.22
46291;BME280;32023;44.444;26.006;2023-04-19T06:00:32;100012.34;;;11.98;71.53
46291;BME280;32023;44.444;26.006;2023-04-19T06:02:58;100011.50;;;12.18;71.49
46291;BME280;32023;44.444;26.006;2023-04-19T06:05:27;100007.88;;;12.32;70.48
46291;BME280;32023;44.444;26.006;2023-04-19T06:07:56;100008.94;;;12.46;69.48
46291;BME280;32023;44.444;26.006;2023-04-19T06:10:27;100014.72;;;12.55;69.11
46291;BME280;32023;44.444;26.006;2023-04-19T06:12:54;100011.09;;;12.65;68.98
46291;BME280;32023;44.444;26.006;2023-04-19T06:15:20;100010.47;;;12.78;68.83
46291;BME280;32023;44.444;26.006;2023-04-19T06:17:52;100011.03;;;12.80;68.60
46291;BME280;32023;44.444;26.006;2023-04-19T06:20:19;99998.31;;;12.84;67.56
46291;BME280;32023;44.444;26.006;2023-04-19T06:22:47;100003.78;;;12.94;67.48
46291;BME280;32023;44.444;26.006;2023-04-19T06:25:16;99994.94;;;12.92;66.50
46291;BME280;32023;44.444;26.006;2023-04-19T06:27:42;100001.00;;;12.94;67.05
46291;BME280;32023;44.444;26.006;2023-04-19T06:30:09;100002.03;;;13.13;66.72
46291;BME280;32023;44.444;26.006;2023-04-19T06:32:35;100002.56;;;13.20;65.25
46291;BME280;32023;44.444;26.006;2023-04-19T06:35:02;100002.72;;;13.34;64.66
46291;BME280;32023;44.444;26.006;2023-04-19T06:37:29;99995.25;;;13.39;63.69
46291;BME280;32023;44.444;26.006;2023-04-19T06:39:56;99993.59;;;13.38;63.42
46291;BME280;32023;44.444;26.006;2023-04-19T06:42:22;99994.56;;;13.52;63.48
46291;BME280;32023;44.444;26.006;2023-04-19T06:44:50;99992.19;;;13.75;63.23
46291;BME280;32023;44.444;26.006;2023-04-19T06:47:19;99987.34;;;13.90;62.00
46291;BME280;32023;44.444;26.006;2023-04-19T06:49:48;99993.09;;;13.99;60.54
46291;BME280;32023;44.444;26.006;2023-04-19T06:52:16;99986.31;;;14.10;59.88
46291;BME280;32023;44.444;26.006;2023-04-19T06:54:49;99995.59;;;14.24;59.32
46291;BME280;32023;44.444;26.006;2023-04-19T06:57:19;99991.19;;;14.23;58.64
46291;BME280;32023;44.444;26.006;2023-04-19T06:59:48;99985.75;;;14.42;59.14
46291;BME280;32023;44.444;26.006;2023-04-19T07:02:14;99995.19;;;14.65;57.95
46291;BME280;32023;44.444;26.006;2023-04-19T07:04:41;99992.56;;;14.73;58.57
46291;BME280;32023;44.444;26.006;2023-04-19T07:07:09;99980.84;;;15.00;58.51
46291;BME280;32023;44.444;26.006;2023-04-19T07:09:54;99989.03;;;15.10;57.99
46291;BME280;32023;44.444;26.006;2023-04-19T07:12:23;99993.91;;;15.18;57.09
46291;BME280;32023;44.444;26.006;2023-04-19T07:14:49;99986.34;;;15.42;56.06
46291;BME280;32023;44.444;26.006;2023-04-19T07:17:23;99993.69;;;15.71;55.74
46291;BME280;32023;44.444;26.006;2023-04-19T07:19:49;99987.06;;;15.85;55.40
46291;BME280;32023;44.444;26.006;2023-04-19T07:22:16;99984.84;;;16.01;55.08
46291;BME280;32023;44.444;26.006;2023-04-19T07:24:42;99985.19;;;16.27;54.53
46291;BME280;32023;44.444;26.006;2023-04-19T07:27:09;99983.38;;;16.50;53.76
46291;BME280;32023;44.444;26.006;2023-04-19T07:29:42;99990.47;;;16.56;53.82
46291;BME280;32023;44.444;26.006;2023-04-19T07:32:08;99986.53;;;16.43;53.91
46291;BME280;32023;44.444;26.006;2023-04-19T07:34:36;99984.50;;;16.49;53.66
46291;BME280;32023;44.444;26.006;2023-04-19T07:37:03;99991.19;;;16.48;53.83
46291;BME280;32023;44.444;26.006;2023-04-19T07:39:29;99983.19;;;16.60;53.84
46291;BME280;32023;44.444;26.006;2023-04-19T07:42:08;99990.06;;;16.62;52.65
46291;BME280;32023;44.444;26.006;2023-04-19T07:44:34;99995.25;;;16.69;53.21
46291;BME280;32023;44.444;26.006;2023-04-19T07:47:02;99990.66;;;17.00;52.01
46291;BME280;32023;44.444;26.006;2023-04-19T07:49:29;99998.81;;;16.97;51.81
46291;BME280;32023;44.444;26.006;2023-04-19T07:51:59;99995.41;;;17.00;51.53
46291;BME280;32023;44.444;26.006;2023-04-19T07:54:27;99998.50;;;16.84;52.05
46291;BME280;32023;44.444;26.006;2023-04-19T07:56:53;99997.38;;;16.85;52.52
46291;BME280;32023;44.444;26.006;2023-04-19T07:59:19;99998.81;;;16.69;53.22
46291;BME280;32023;44.444;26.006;2023-04-19T08:01:46;99992.34;;;16.74;53.07
46291;BME280;32023;44.444;26.006;2023-04-19T08:04:12;99995.03;;;16.79;52.83
46291;BME280;32023;44.444;26.006;2023-04-19T08:06:39;99992.34;;;16.88;52.14
46291;BME280;32023;44.444;26.006;2023-04-19T08:09:14;99984.13;;;17.18;51.83
46291;BME280;32023;44.444;26.006;2023-04-19T08:11:45;99982.75;;;17.43;50.75
46291;BME280;32023;44.444;26.006;2023-04-19T08:17:28;99989.13;;;17.44;51.29
46291;BME280;32023;44.444;26.006;2023-04-19T08:19:57;99975.59;;;17.51;51.26
46291;BME280;32023;44.444;26.006;2023-04-19T08:22:24;99975.25;;;17.66;51.30
46291;BME280;32023;44.444;26.006;2023-04-19T08:24:51;99971.91;;;17.77;50.68
46291;BME280;32023;44.444;26.006;2023-04-19T08:27:23;99961.75;;;18.04;49.71
46291;BME280;32023;44.444;26.006;2023-04-19T08:30:02;99956.84;;;18.32;48.84
46291;BME280;32023;44.444;26.006;2023-04-19T08:32:29;99967.88;;;18.14;48.49
46291;BME280;32023;44.444;26.006;2023-04-19T08:35:09;99966.97;;;18.27;47.75
46291;BME280;32023;44.444;26.006;2023-04-19T08:37:35;99960.31;;;18.46;48.16
46291;BME280;32023;44.444;26.006;2023-04-19T08:40:03;99958.63;;;18.67;47.85
46291;BME280;32023;44.444;26.006;2023-04-19T08:42:31;99948.97;;;18.73;48.28
46291;BME280;32023;44.444;26.006;2023-04-19T08:45:06;99957.31;;;18.64;47.05
46291;BME280;32023;44.444;26.006;2023-04-19T08:47:36;99956.38;;;18.86;47.35
46291;BME280;32023;44.444;26.006;2023-04-19T08:50:07;99955.59;;;18.94;47.14
46291;BME280;32023;44.444;26.006;2023-04-19T08:52:36;99953.97;;;19.19;45.15
46291;BME280;32023;44.444;26.006;2023-04-19T08:55:09;99947.06;;;19.34;44.67
46291;BME280;32023;44.444;26.006;2023-04-19T08:57:38;99952.84;;;19.37;45.06
46291;BME280;32023;44.444;26.006;2023-04-19T09:00:06;99949.91;;;19.51;44.66
46291;BME280;32023;44.444;26.006;2023-04-19T09:02:50;99952.31;;;19.95;44.60
46291;BME280;32023;44.444;26.006;2023-04-19T09:05:17;99953.97;;;19.96;44.36
46291;BME280;32023;44.444;26.006;2023-04-19T09:07:49;99950.56;;;19.74;43.50
46291;BME280;32023;44.444;26.006;2023-04-19T09:10:20;99947.78;;;19.48;44.22
46291;BME280;32023;44.444;26.006;2023-04-19T09:13:03;99943.50;;;19.50;45.88
46291;BME280;32023;44.444;26.006;2023-04-19T09:15:38;99947.06;;;19.16;47.02
46291;BME280;32023;44.444;26.006;2023-04-19T09:18:07;99950.63;;;18.83;48.04
46291;BME280;32023;44.444;26.006;2023-04-19T09:20:43;99951.81;;;19.07;46.28
46291;BME280;32023;44.444;26.006;2023-04-19T09:23:12;99944.47;;;19.46;45.27
46291;BME280;32023;44.444;26.006;2023-04-19T09:25:40;99940.66;;;19.93;44.66
46291;BME280;32023;44.444;26.006;2023-04-19T09:28:16;99939.97;;;20.05;44.08
46291;BME280;32023;44.444;26.006;2023-04-19T09:30:42;99943.72;;;20.17;43.22
46291;BME280;32023;44.444;26.006;2023-04-19T09:33:08;99947.50;;;20.13;42.54
46291;BME280;32023;44.444;26.006;2023-04-19T09:35:42;99944.81;;;20.42;42.22
46291;BME280;32023;44.444;26.006;2023-04-19T09:38:10;99937.38;;;19.91;43.16
46291;BME280;32023;44.444;26.006;2023-04-19T09:40:40;99933.78;;;19.82;43.67
46291;BME280;32023;44.444;26.006;2023-04-19T09:43:07;99936.69;;;20.03;42.41
46291;BME280;32023;44.444;26.006;2023-04-19T09:45:43;99929.72;;;20.26;41.80
46291;BME280;32023;44.444;26.006;2023-04-19T09:48:11;99937.69;;;19.98;43.36
46291;BME280;32023;44.444;26.006;2023-04-19T09:50:57;99937.88;;;19.93;42.63
46291;BME280;32023;44.444;26.006;2023-04-19T09:53:27;99934.25;;;20.01;43.00
46291;BME280;32023;44.444;26.006;2023-04-19T09:55:54;99936.75;;;19.68;43.66
46291;BME280;32023;44.444;26.006;2023-04-19T09:58:21;99928.41;;;19.43;44.27
46291;BME280;32023;44.444;26.006;2023-04-19T10:00:48;99927.22;;;19.35;44.59
46291;BME280;32023;44.444;26.006;2023-04-19T10:03:18;99932.63;;;19.06;45.51
46291;BME280;32023;44.444;26.006;2023-04-19T10:05:45;99935.47;;;18.58;46.96
46291;BME280;32023;44.444;26.006;2023-04-19T10:08:12;99937.94;;;18.28;47.91
46291;BME280;32023;44.444;26.006;2023-04-19T10:10:40;99927.63;;;18.29;48.16
46291;BME280;32023;44.444;26.006;2023-04-19T10:13:10;99925.00;;;18.72;45.93
46291;BME280;32023;44.444;26.006;2023-04-19T10:15:36;99920.19;;;20.65;42.70
46291;BME280;32023;44.444;26.006;2023-04-19T10:18:06;99928.59;;;20.65;41.59
46291;BME280;32023;44.444;26.006;2023-04-19T10:20:49;99925.25;;;19.79;43.69
46291;BME280;32023;44.444;26.006;2023-04-19T10:23:21;99925.38;;;18.96;45.88
46291;BME280;32023;44.444;26.006;2023-04-19T10:25:56;99926.19;;;18.40;46.88
46291;BME280;32023;44.444;26.006;2023-04-19T10:28:27;99919.75;;;18.31;47.02
46291;BME280;32023;44.444;26.006;2023-04-19T10:31:00;99916.97;;;18.31;47.20
46291;BME280;32023;44.444;26.006;2023-04-19T10:33:30;99920.22;;;18.24;47.22
46291;BME280;32023;44.444;26.006;2023-04-19T10:35:59;99920.78;;;18.44;46.77
46291;BME280;32023;44.444;26.006;2023-04-19T10:38:43;99920.72;;;18.26;48.28
46291;BME280;32023;44.444;26.006;2023-04-19T10:41:15;99919.78;;;18.00;49.04
46291;BME280;32023;44.444;26.006;2023-04-19T10:44:08;99920.88;;;17.68;49.49
46291;BME280;32023;44.444;26.006;2023-04-19T10:46:43;99924.53;;;17.33;50.21
46291;BME280;32023;44.444;26.006;2023-04-19T10:49:10;99922.69;;;17.06;50.74
46291;BME280;32023;44.444;26.006;2023-04-19T10:51:39;99916.81;;;16.94;50.37
46291;BME280;32023;44.444;26.006;2023-04-19T10:57:05;99913.66;;;16.87;51.38
46291;BME280;32023;44.444;26.006;2023-04-19T10:59:36;99915.31;;;16.74;52.45
46291;BME280;32023;44.444;26.006;2023-04-19T11:02:25;99924.19;;;16.76;53.30
46291;BME280;32023;44.444;26.006;2023-04-19T11:07:20;99917.50;;;16.64;54.12
46291;BME280;32023;44.444;26.006;2023-04-19T11:09:49;99913.25;;;16.80;54.15
46291;BME280;32023;44.444;26.006;2023-04-19T11:12:18;99899.03;;;17.40;52.14
46291;BME280;32023;44.444;26.006;2023-04-19T11:14:51;99904.69;;;17.70;49.64
46291;BME280;32023;44.444;26.006;2023-04-19T11:17:24;99902.13;;;17.83;48.17
46291;BME280;32023;44.444;26.006;2023-04-19T11:19:59;99903.53;;;17.71;50.88
46291;BME280;32023;44.444;26.006;2023-04-19T11:22:31;99900.53;;;17.59;51.42
46291;BME280;32023;44.444;26.006;2023-04-19T11:25:14;99895.63;;;17.43;51.27
46291;BME280;32023;44.444;26.006;2023-04-19T11:27:50;99898.97;;;17.31;50.26
46291;BME280;32023;44.444;26.006;2023-04-19T11:30:21;99886.25;;;17.16;51.33
46291;BME280;32023;44.444;26.006;2023-04-19T11:32:53;99898.28;;;17.25;51.18
46291;BME280;32023;44.444;26.006;2023-04-19T11:35:25;99897.75;;;17.23;52.29
46291;BME280;32023;44.444;26.006;2023-04-19T11:37:53;99895.69;;;17.07;52.37
46291;BME280;32023;44.444;26.006;2023-04-19T11:40:21;99890.66;;;16.95;51.89
46291;BME280;32023;44.444;26.006;2023-04-19T11:42:54;99885.84;;;16.87;52.83
46291;BME280;32023;44.444;26.006;2023-04-19T11:45:34;99878.63;;;16.86;52.75
46291;BME280;32023;44.444;26.006;2023-04-19T11:48:14;99890.56;;;16.87;52.87
46291;BME280;32023;44.444;26.006;2023-04-19T11:50:44;99875.25;;;16.75;52.84
46291;BME280;32023;44.444;26.006;2023-04-19T11:53:31;99873.94;;;16.73;52.79
46291;BME280;32023;44.444;26.006;2023-04-19T11:56:05;99875.44;;;16.79;53.03
46291;BME280;32023;44.444;26.006;2023-04-19T12:01:21;99869.28;;;16.55;53.83
46291;BME280;32023;44.444;26.006;2023-04-19T12:03:54;99866.50;;;16.55;54.21
46291;BME280;32023;44.444;26.006;2023-04-19T12:06:29;99863.66;;;16.60;53.61
46291;BME280;32023;44.444;26.006;2023-04-19T12:08:58;99865.25;;;16.74;53.20
46291;BME280;32023;44.444;26.006;2023-04-19T12:11:46;99858.13;;;16.82;52.99
46291;BME280;32023;44.444;26.006;2023-04-19T12:14:17;99865.00;;;16.98;51.78
46291;BME280;32023;44.444;26.006;2023-04-19T12:16:45;99847.22;;;17.08;51.27
46291;BME280;32023;44.444;26.006;2023-04-19T12:19:18;99838.81;;;17.44;50.44
46291;BME280;32023;44.444;26.006;2023-04-19T12:21:47;99835.66;;;17.90;50.00
46291;BME280;32023;44.444;26.006;2023-04-19T12:24:15;99842.47;;;18.14;48.18
46291;BME280;32023;44.444;26.006;2023-04-19T12:26:54;99835.22;;;18.05;47.51
46291;BME280;32023;44.444;26.006;2023-04-19T12:29:21;99828.84;;;18.13;47.72
46291;BME280;32023;44.444;26.006;2023-04-19T12:31:48;99823.88;;;17.93;47.89
46291;BME280;32023;44.444;26.006;2023-04-19T12:34:14;99826.44;;;17.80;48.59
46291;BME280;32023;44.444;26.006;2023-04-19T12:36:41;99823.06;;;17.61;49.27
46291;BME280;32023;44.444;26.006;2023-04-19T12:39:07;99830.97;;;17.46;49.99
46291;BME280;32023;44.444;26.006;2023-04-19T12:41:34;99822.13;;;17.44;50.14
46291;BME280;32023;44.444;26.006;2023-04-19T12:44:02;99831.69;;;17.29;49.14
46291;BME280;32023;44.444;26.006;2023-04-19T12:46:32;99826.53;;;17.22;49.85
46291;BME280;32023;44.444;26.006;2023-04-19T12:48:58;99822.25;;;17.16;49.96
46291;BME280;32023;44.444;26.006;2023-04-19T12:51:25;99820.19;;;17.22;49.99
46291;BME280;32023;44.444;26.006;2023-04-19T12:53:58;99819.16;;;17.18;49.49
46291;BME280;32023;44.444;26.006;2023-04-19T12:56:33;99823.28;;;17.20;49.90
46291;BME280;32023;44.444;26.006;2023-04-19T12:59:38;99823.66;;;17.27;49.31
46291;BME280;32023;44.444;26.006;2023-04-19T13:02:18;99819.09;;;17.31;49.75
46291;BME280;32023;44.444;26.006;2023-04-19T13:05:12;99820.84;;;17.27;49.63
46291;BME280;32023;44.444;26.006;2023-04-19T13:07:47;99816.19;;;17.37;49.08
46291;BME280;32023;44.444;26.006;2023-04-19T13:10:30;99814.41;;;17.41;48.97
46291;BME280;32023;44.444;26.006;2023-04-19T13:13:20;99827.13;;;17.33;49.13
46291;BME280;32023;44.444;26.006;2023-04-19T13:16:12;99817.78;;;17.29;49.39
46291;BME280;32023;44.444;26.006;2023-04-19T13:18:56;99817.06;;;17.23;49.41
46291;BME280;32023;44.444;26.006;2023-04-19T13:27:41;99809.09;;;17.08;49.69
46291;BME280;32023;44.444;26.006;2023-04-19T13:30:08;99818.28;;;17.09;50.04
46291;BME280;32023;44.444;26.006;2023-04-19T13:32:37;99813.00;;;17.07;50.09
46291;BME280;32023;44.444;26.006;2023-04-19T13:35:31;99700.47;;;16.47;49.70
46291;BME280;32023;44.444;26.006;2023-04-19T13:38:06;99815.88;;;17.16;49.89
46291;BME280;32023;44.444;26.006;2023-04-19T13:40:38;99814.84;;;17.12;49.50